Dorothy, West Virginia
Current Conditions -  °F | °C
As of 1:51 PM on Monday 20 Oct 2014 (Local Time) from KBKW Reporting Station
Clear Clear  
Wind Chill: 58°   Ceiling: Unl
Heat Index: 58°   Visibility: 10mi
Dew Point: 40°   Wind: 12mph
Humidity: 51%   Direction: 230°SW
Pressure: 30.01"   Gusts: NA
Location:  37.95°N, 81.45°W
Report Text: KBKW 201751Z AUTO 23010KT 10SM CLR 14/04 A3001 RMK AO2 SLP160 T01440044 10150 20011 56022 TSNO
Loading
Personal Weather Stations






























Interactive Weather Map
Tropical Storm Tracking
New forecast layout! Learn more

10-Day Weather Forecast

Advertisements
Track Severe Weather on mobile